sensor_id;sensor_type;location;lat;lon;timestamp;P1;durP1;ratioP1;P2;durP2;ratioP2
26588;SDS011;14235;48.532;8.722;2022-10-16T00:02:10;5.30;;;2.25;;
26588;SDS011;14235;48.532;8.722;2022-10-16T00:04:41;6.22;;;2.65;;
26588;SDS011;14235;48.532;8.722;2022-10-16T00:07:08;3.72;;;2.50;;
26588;SDS011;14235;48.532;8.722;2022-10-16T00:09:40;4.20;;;1.83;;
26588;SDS011;14235;48.532;8.722;2022-10-16T00:12:13;4.15;;;2.38;;
26588;SDS011;14235;48.532;8.722;2022-10-16T00:15:10;7.20;;;2.22;;
26588;SDS011;14235;48.532;8.722;2022-10-16T00:17:36;6.90;;;2.20;;
26588;SDS011;14235;48.532;8.722;2022-10-16T00:20:02;7.30;;;2.22;;
26588;SDS011;14235;48.532;8.722;2022-10-16T00:22:29;1.85;;;1.75;;
26588;SDS011;14235;48.532;8.722;2022-10-16T00:24:55;2.30;;;1.48;;
26588;SDS011;14235;48.532;8.722;2022-10-16T00:27:21;4.88;;;1.60;;
26588;SDS011;14235;48.532;8.722;2022-10-16T00:29:50;1.42;;;1.33;;
26588;SDS011;14235;48.532;8.722;2022-10-16T00:32:17;6.13;;;1.75;;
26588;SDS011;14235;48.532;8.722;2022-10-16T00:34:43;4.65;;;1.75;;
26588;SDS011;14235;48.532;8.722;2022-10-16T00:37:09;3.67;;;1.27;;
26588;SDS011;14235;48.532;8.722;2022-10-16T00:39:35;3.05;;;1.45;;
26588;SDS011;14235;48.532;8.722;2022-10-16T00:42:01;3.97;;;1.85;;
26588;SDS011;14235;48.532;8.722;2022-10-16T00:47:12;5.18;;;2.50;;
26588;SDS011;14235;48.532;8.722;2022-10-16T00:49:41;6.22;;;2.17;;
26588;SDS011;14235;48.532;8.722;2022-10-16T00:52:07;6.88;;;2.15;;
26588;SDS011;14235;48.532;8.722;2022-10-16T00:54:33;2.00;;;1.80;;
26588;SDS011;14235;48.532;8.722;2022-10-16T00:57:00;3.50;;;1.70;;
26588;SDS011;14235;48.532;8.722;2022-10-16T00:59:28;2.17;;;1.65;;
26588;SDS011;14235;48.532;8.722;2022-10-16T01:01:55;2.78;;;1.73;;
26588;SDS011;14235;48.532;8.722;2022-10-16T01:04:22;5.75;;;1.90;;
26588;SDS011;14235;48.532;8.722;2022-10-16T01:09:20;4.60;;;2.00;;
26588;SDS011;14235;48.532;8.722;2022-10-16T01:12:01;4.50;;;1.98;;
26588;SDS011;14235;48.532;8.722;2022-10-16T01:14:48;3.35;;;1.85;;
26588;SDS011;14235;48.532;8.722;2022-10-16T01:17:18;3.30;;;2.00;;
26588;SDS011;14235;48.532;8.722;2022-10-16T01:19:58;6.07;;;2.28;;
26588;SDS011;14235;48.532;8.722;2022-10-16T01:22:39;5.22;;;1.95;;
26588;SDS011;14235;48.532;8.722;2022-10-16T01:25:11;4.30;;;1.90;;
26588;SDS011;14235;48.532;8.722;2022-10-16T01:27:37;8.52;;;2.10;;
26588;SDS011;14235;48.532;8.722;2022-10-16T01:30:07;4.82;;;1.98;;
26588;SDS011;14235;48.532;8.722;2022-10-16T01:32:46;2.92;;;1.85;;
26588;SDS011;14235;48.532;8.722;2022-10-16T01:40:46;3.53;;;1.77;;
26588;SDS011;14235;48.532;8.722;2022-10-16T01:43:15;3.33;;;1.95;;
26588;SDS011;14235;48.532;8.722;2022-10-16T01:45:41;4.53;;;1.70;;
26588;SDS011;14235;48.532;8.722;2022-10-16T01:48:09;5.85;;;1.80;;
26588;SDS011;14235;48.532;8.722;2022-10-16T01:50:38;3.08;;;1.40;;
26588;SDS011;14235;48.532;8.722;2022-10-16T01:53:05;1.65;;;1.50;;
26588;SDS011;14235;48.532;8.722;2022-10-16T01:55:33;3.42;;;1.55;;
26588;SDS011;14235;48.532;8.722;2022-10-16T01:58:01;4.20;;;1.50;;
26588;SDS011;14235;48.532;8.722;2022-10-16T02:00:28;2.42;;;1.77;;
26588;SDS011;14235;48.532;8.722;2022-10-16T02:02:55;3.60;;;1.50;;
26588;SDS011;14235;48.532;8.722;2022-10-16T02:07:56;2.95;;;1.60;;
26588;SDS011;14235;48.532;8.722;2022-10-16T02:10:22;1.88;;;1.27;;
26588;SDS011;14235;48.532;8.722;2022-10-16T02:12:58;3.33;;;1.55;;
26588;SDS011;14235;48.532;8.722;2022-10-16T02:15:25;2.05;;;1.67;;
26588;SDS011;14235;48.532;8.722;2022-10-16T02:17:51;3.95;;;1.70;;
26588;SDS011;14235;48.532;8.722;2022-10-16T02:20:17;4.75;;;1.40;;
26588;SDS011;14235;48.532;8.722;2022-10-16T02:22:47;5.28;;;1.80;;
26588;SDS011;14235;48.532;8.722;2022-10-16T02:32:58;4.07;;;1.48;;
26588;SDS011;14235;48.532;8.722;2022-10-16T02:35:26;4.50;;;1.70;;
26588;SDS011;14235;48.532;8.722;2022-10-16T02:37:52;1.67;;;1.58;;
26588;SDS011;14235;48.532;8.722;2022-10-16T02:40:19;5.15;;;1.55;;
26588;SDS011;14235;48.532;8.722;2022-10-16T02:42:49;3.75;;;1.27;;
26588;SDS011;14235;48.532;8.722;2022-10-16T02:45:16;5.20;;;1.80;;
26588;SDS011;14235;48.532;8.722;2022-10-16T02:47:42;4.15;;;1.33;;
26588;SDS011;14235;48.532;8.722;2022-10-16T02:50:08;2.80;;;1.05;;
26588;SDS011;14235;48.532;8.722;2022-10-16T02:52:33;2.53;;;1.73;;
26588;SDS011;14235;48.532;8.722;2022-10-16T02:54:59;3.17;;;1.65;;
26588;SDS011;14235;48.532;8.722;2022-10-16T02:57:25;5.40;;;1.58;;
26588;SDS011;14235;48.532;8.722;2022-10-16T02:59:50;4.80;;;1.40;;
26588;SDS011;14235;48.532;8.722;2022-10-16T03:02:16;2.28;;;1.25;;
26588;SDS011;14235;48.532;8.722;2022-10-16T03:04:42;2.47;;;1.50;;
26588;SDS011;14235;48.532;8.722;2022-10-16T03:07:07;2.13;;;1.13;;
26588;SDS011;14235;48.532;8.722;2022-10-16T03:09:33;2.33;;;1.40;;
26588;SDS011;14235;48.532;8.722;2022-10-16T03:11:59;3.33;;;1.73;;
26588;SDS011;14235;48.532;8.722;2022-10-16T03:14:24;1.80;;;1.45;;
26588;SDS011;14235;48.532;8.722;2022-10-16T03:16:50;5.35;;;1.23;;
26588;SDS011;14235;48.532;8.722;2022-10-16T03:19:16;4.60;;;1.33;;
26588;SDS011;14235;48.532;8.722;2022-10-16T03:21:42;2.83;;;2.03;;
26588;SDS011;14235;48.532;8.722;2022-10-16T03:24:08;6.10;;;1.30;;
26588;SDS011;14235;48.532;8.722;2022-10-16T03:26:34;2.60;;;1.30;;
26588;SDS011;14235;48.532;8.722;2022-10-16T03:29:00;5.05;;;1.38;;
26588;SDS011;14235;48.532;8.722;2022-10-16T03:31:27;4.20;;;1.40;;
26588;SDS011;14235;48.532;8.722;2022-10-16T03:33:53;7.93;;;1.70;;
26588;SDS011;14235;48.532;8.722;2022-10-16T03:36:18;4.53;;;1.60;;
26588;SDS011;14235;48.532;8.722;2022-10-16T03:38:44;3.42;;;1.50;;
26588;SDS011;14235;48.532;8.722;2022-10-16T03:41:09;1.23;;;1.20;;
26588;SDS011;14235;48.532;8.722;2022-10-16T03:43:35;1.80;;;1.33;;
26588;SDS011;14235;48.532;8.722;2022-10-16T03:46:00;2.13;;;1.10;;
26588;SDS011;14235;48.532;8.722;2022-10-16T03:48:26;2.88;;;1.50;;
26588;SDS011;14235;48.532;8.722;2022-10-16T03:50:51;4.13;;;1.30;;
26588;SDS011;14235;48.532;8.722;2022-10-16T03:53:17;3.67;;;1.23;;
26588;SDS011;14235;48.532;8.722;2022-10-16T03:55:43;1.67;;;1.40;;
26588;SDS011;14235;48.532;8.722;2022-10-16T03:58:09;2.25;;;1.30;;
26588;SDS011;14235;48.532;8.722;2022-10-16T04:00:35;2.08;;;1.23;;
26588;SDS011;14235;48.532;8.722;2022-10-16T04:03:04;3.67;;;1.30;;
26588;SDS011;14235;48.532;8.722;2022-10-16T04:05:30;7.03;;;1.77;;
26588;SDS011;14235;48.532;8.722;2022-10-16T04:07:55;3.08;;;1.33;;
26588;SDS011;14235;48.532;8.722;2022-10-16T04:10:21;2.78;;;1.38;;
26588;SDS011;14235;48.532;8.722;2022-10-16T04:12:46;4.75;;;1.45;;
26588;SDS011;14235;48.532;8.722;2022-10-16T04:15:12;5.45;;;1.50;;
26588;SDS011;14235;48.532;8.722;2022-10-16T04:17:38;2.03;;;1.20;;
26588;SDS011;14235;48.532;8.722;2022-10-16T04:20:03;2.10;;;1.52;;
26588;SDS011;14235;48.532;8.722;2022-10-16T04:22:29;3.78;;;1.80;;
26588;SDS011;14235;48.532;8.722;2022-10-16T04:24:55;2.67;;;1.50;;
26588;SDS011;14235;48.532;8.722;2022-10-16T04:27:21;3.38;;;1.20;;
26588;SDS011;14235;48.532;8.722;2022-10-16T04:29:46;3.33;;;1.15;;
26588;SDS011;14235;48.532;8.722;2022-10-16T04:32:12;3.38;;;1.60;;
26588;SDS011;14235;48.532;8.722;2022-10-16T04:34:38;4.68;;;1.40;;
26588;SDS011;14235;48.532;8.722;2022-10-16T04:37:04;2.95;;;1.30;;
26588;SDS011;14235;48.532;8.722;2022-10-16T04:39:30;6.60;;;1.40;;
26588;SDS011;14235;48.532;8.722;2022-10-16T04:41:55;4.85;;;1.17;;
26588;SDS011;14235;48.532;8.722;2022-10-16T04:44:21;2.15;;;1.67;;
26588;SDS011;14235;48.532;8.722;2022-10-16T04:46:46;3.58;;;1.40;;
26588;SDS011;14235;48.532;8.722;2022-10-16T04:49:12;4.35;;;1.70;;
26588;SDS011;14235;48.532;8.722;2022-10-16T04:51:38;6.60;;;1.60;;
26588;SDS011;14235;48.532;8.722;2022-10-16T04:54:03;2.58;;;1.45;;
26588;SDS011;14235;48.532;8.722;2022-10-16T04:56:29;5.10;;;1.65;;
26588;SDS011;14235;48.532;8.722;2022-10-16T04:58:55;3.50;;;1.75;;
26588;SDS011;14235;48.532;8.722;2022-10-16T05:01:20;4.20;;;1.38;;
26588;SDS011;14235;48.532;8.722;2022-10-16T05:03:46;3.45;;;1.63;;
26588;SDS011;14235;48.532;8.722;2022-10-16T05:06:11;3.83;;;1.50;;
26588;SDS011;14235;48.532;8.722;2022-10-16T05:08:37;3.85;;;1.65;;
26588;SDS011;14235;48.532;8.722;2022-10-16T05:11:02;6.22;;;1.65;;
26588;SDS011;14235;48.532;8.722;2022-10-16T05:13:28;7.43;;;1.48;;
26588;SDS011;14235;48.532;8.722;2022-10-16T05:15:54;3.92;;;1.67;;
26588;SDS011;14235;48.532;8.722;2022-10-16T05:18:19;6.82;;;1.70;;
26588;SDS011;14235;48.532;8.722;2022-10-16T05:20:45;2.40;;;1.67;;
26588;SDS011;14235;48.532;8.722;2022-10-16T05:23:10;2.42;;;1.75;;
26588;SDS011;14235;48.532;8.722;2022-10-16T05:25:36;5.82;;;1.60;;
26588;SDS011;14235;48.532;8.722;2022-10-16T05:28:02;5.45;;;1.55;;
26588;SDS011;14235;48.532;8.722;2022-10-16T05:30:28;4.70;;;2.10;;
26588;SDS011;14235;48.532;8.722;2022-10-16T05:32:54;2.80;;;1.83;;
26588;SDS011;14235;48.532;8.722;2022-10-16T05:35:19;5.47;;;1.60;;
26588;SDS011;14235;48.532;8.722;2022-10-16T05:37:45;5.43;;;2.00;;
26588;SDS011;14235;48.532;8.722;2022-10-16T05:40:11;3.03;;;2.22;;
26588;SDS011;14235;48.532;8.722;2022-10-16T05:42:38;5.25;;;1.90;;
26588;SDS011;14235;48.532;8.722;2022-10-16T05:45:04;5.22;;;2.03;;
26588;SDS011;14235;48.532;8.722;2022-10-16T05:47:31;3.72;;;1.80;;
26588;SDS011;14235;48.532;8.722;2022-10-16T05:49:57;3.75;;;1.80;;
26588;SDS011;14235;48.532;8.722;2022-10-16T05:52:22;5.22;;;2.15;;
26588;SDS011;14235;48.532;8.722;2022-10-16T05:54:48;2.75;;;1.83;;
26588;SDS011;14235;48.532;8.722;2022-10-16T05:57:13;3.88;;;1.80;;
26588;SDS011;14235;48.532;8.722;2022-10-16T05:59:39;3.85;;;1.85;;
26588;SDS011;14235;48.532;8.722;2022-10-16T06:02:05;3.25;;;1.60;;
26588;SDS011;14235;48.532;8.722;2022-10-16T06:04:30;4.93;;;2.05;;
26588;SDS011;14235;48.532;8.722;2022-10-16T06:06:58;4.60;;;2.08;;
26588;SDS011;14235;48.532;8.722;2022-10-16T06:09:25;2.78;;;1.90;;
26588;SDS011;14235;48.532;8.722;2022-10-16T06:11:51;2.85;;;2.13;;
26588;SDS011;14235;48.532;8.722;2022-10-16T06:14:16;2.72;;;1.92;;
26588;SDS011;14235;48.532;8.722;2022-10-16T06:16:42;3.70;;;2.22;;
26588;SDS011;14235;48.532;8.722;2022-10-16T06:19:07;5.55;;;2.15;;
26588;SDS011;14235;48.532;8.722;2022-10-16T06:21:34;4.18;;;1.98;;
26588;SDS011;14235;48.532;8.722;2022-10-16T06:24:00;3.92;;;1.80;;
26588;SDS011;14235;48.532;8.722;2022-10-16T06:26:26;5.43;;;1.90;;
26588;SDS011;14235;48.532;8.722;2022-10-16T06:28:54;2.72;;;2.00;;
26588;SDS011;14235;48.532;8.722;2022-10-16T06:31:21;3.78;;;1.80;;
26588;SDS011;14235;48.532;8.722;2022-10-16T06:33:50;5.68;;;2.10;;
26588;SDS011;14235;48.532;8.722;2022-10-16T06:36:16;3.67;;;1.70;;
26588;SDS011;14235;48.532;8.722;2022-10-16T06:38:42;4.47;;;1.90;;
26588;SDS011;14235;48.532;8.722;2022-10-16T06:41:09;4.00;;;1.90;;
26588;SDS011;14235;48.532;8.722;2022-10-16T06:43:37;5.30;;;1.80;;
26588;SDS011;14235;48.532;8.722;2022-10-16T06:46:04;4.63;;;2.45;;
26588;SDS011;14235;48.532;8.722;2022-10-16T06:48:32;6.18;;;2.78;;
26588;SDS011;14235;48.532;8.722;2022-10-16T06:51:11;2.70;;;2.50;;
26588;SDS011;14235;48.532;8.722;2022-10-16T06:53:40;4.20;;;2.75;;
26588;SDS011;14235;48.532;8.722;2022-10-16T06:56:08;9.02;;;2.80;;
26588;SDS011;14235;48.532;8.722;2022-10-16T06:58:34;2.70;;;2.30;;
26588;SDS011;14235;48.532;8.722;2022-10-16T07:01:00;5.53;;;2.28;;
26588;SDS011;14235;48.532;8.722;2022-10-16T07:03:25;5.07;;;1.73;;
26588;SDS011;14235;48.532;8.722;2022-10-16T07:05:51;4.63;;;1.98;;
26588;SDS011;14235;48.532;8.722;2022-10-16T07:08:17;5.53;;;2.78;;
26588;SDS011;14235;48.532;8.722;2022-10-16T07:10:42;4.18;;;2.40;;
26588;SDS011;14235;48.532;8.722;2022-10-16T07:13:08;2.97;;;2.28;;
26588;SDS011;14235;48.532;8.722;2022-10-16T07:15:33;4.50;;;2.20;;
26588;SDS011;14235;48.532;8.722;2022-10-16T07:17:59;3.40;;;2.08;;
26588;SDS011;14235;48.532;8.722;2022-10-16T07:20:25;4.07;;;1.90;;
26588;SDS011;14235;48.532;8.722;2022-10-16T07:22:50;3.50;;;1.70;;
26588;SDS011;14235;48.532;8.722;2022-10-16T07:25:16;3.83;;;1.98;;
26588;SDS011;14235;48.532;8.722;2022-10-16T07:27:42;2.67;;;2.10;;
26588;SDS011;14235;48.532;8.722;2022-10-16T07:30:08;3.67;;;2.08;;
26588;SDS011;14235;48.532;8.722;2022-10-16T07:32:34;5.20;;;2.42;;
26588;SDS011;14235;48.532;8.722;2022-10-16T07:35:00;3.03;;;2.00;;
26588;SDS011;14235;48.532;8.722;2022-10-16T07:37:25;3.50;;;1.90;;
26588;SDS011;14235;48.532;8.722;2022-10-16T07:39:51;3.20;;;2.03;;
26588;SDS011;14235;48.532;8.722;2022-10-16T07:42:16;5.35;;;1.80;;
26588;SDS011;14235;48.532;8.722;2022-10-16T07:44:42;2.35;;;1.85;;
26588;SDS011;14235;48.532;8.722;2022-10-16T07:47:08;4.15;;;2.15;;
26588;SDS011;14235;48.532;8.722;2022-10-16T07:49:33;2.97;;;1.92;;
26588;SDS011;14235;48.532;8.722;2022-10-16T07:51:59;2.08;;;1.42;;
26588;SDS011;14235;48.532;8.722;2022-10-16T07:54:24;3.92;;;1.77;;
26588;SDS011;14235;48.532;8.722;2022-10-16T07:56:50;2.25;;;1.52;;
26588;SDS011;14235;48.532;8.722;2022-10-16T07:59:15;1.67;;;1.58;;
26588;SDS011;14235;48.532;8.722;2022-10-16T08:01:41;2.65;;;1.70;;
26588;SDS011;14235;48.532;8.722;2022-10-16T08:04:07;3.88;;;1.98;;
26588;SDS011;14235;48.532;8.722;2022-10-16T08:06:37;5.88;;;2.00;;
26588;SDS011;14235;48.532;8.722;2022-10-16T08:09:05;2.25;;;2.15;;
26588;SDS011;14235;48.532;8.722;2022-10-16T08:11:31;5.00;;;2.70;;
26588;SDS011;14235;48.532;8.722;2022-10-16T08:13:57;4.35;;;2.80;;
26588;SDS011;14235;48.532;8.722;2022-10-16T08:16:22;3.20;;;2.90;;
26588;SDS011;14235;48.532;8.722;2022-10-16T08:18:48;3.83;;;2.92;;
26588;SDS011;14235;48.532;8.722;2022-10-16T08:21:17;7.88;;;3.17;;
26588;SDS011;14235;48.532;8.722;2022-10-16T08:23:44;3.95;;;3.15;;
26588;SDS011;14235;48.532;8.722;2022-10-16T08:26:10;4.50;;;2.90;;
26588;SDS011;14235;48.532;8.722;2022-10-16T08:28:36;3.65;;;2.65;;
26588;SDS011;14235;48.532;8.722;2022-10-16T08:31:09;4.28;;;2.65;;
26588;SDS011;14235;48.532;8.722;2022-10-16T08:33:40;3.90;;;2.65;;
26588;SDS011;14235;48.532;8.722;2022-10-16T08:36:08;3.08;;;2.47;;
26588;SDS011;14235;48.532;8.722;2022-10-16T08:38:35;5.15;;;2.58;;
26588;SDS011;14235;48.532;8.722;2022-10-16T08:49:13;6.13;;;2.38;;
26588;SDS011;14235;48.532;8.722;2022-10-16T08:51:39;4.43;;;2.60;;
26588;SDS011;14235;48.532;8.722;2022-10-16T08:54:21;3.78;;;2.33;;
26588;SDS011;14235;48.532;8.722;2022-10-16T08:57:00;2.50;;;2.30;;
26588;SDS011;14235;48.532;8.722;2022-10-16T08:59:37;4.50;;;2.20;;
26588;SDS011;14235;48.532;8.722;2022-10-16T09:02:02;2.08;;;1.90;;
26588;SDS011;14235;48.532;8.722;2022-10-16T09:18:37;4.30;;;2.20;;
26588;SDS011;14235;48.532;8.722;2022-10-16T09:21:10;5.07;;;2.00;;
26588;SDS011;14235;48.532;8.722;2022-10-16T09:23:40;3.20;;;2.33;;
26588;SDS011;14235;48.532;8.722;2022-10-16T09:26:09;3.50;;;2.40;;
26588;SDS011;14235;48.532;8.722;2022-10-16T09:28:39;2.60;;;2.38;;
26588;SDS011;14235;48.532;8.722;2022-10-16T09:31:07;3.00;;;2.67;;
26588;SDS011;14235;48.532;8.722;2022-10-16T09:33:41;3.75;;;3.20;;
26588;SDS011;14235;48.532;8.722;2022-10-16T09:36:08;4.03;;;3.65;;
26588;SDS011;14235;48.532;8.722;2022-10-16T09:38:36;6.43;;;3.83;;
26588;SDS011;14235;48.532;8.722;2022-10-16T09:41:03;4.22;;;3.72;;
26588;SDS011;14235;48.532;8.722;2022-10-16T09:43:53;4.18;;;3.80;;
26588;SDS011;14235;48.532;8.722;2022-10-16T09:46:34;4.70;;;3.00;;
26588;SDS011;14235;48.532;8.722;2022-10-16T09:49:02;6.13;;;4.70;;
26588;SDS011;14235;48.532;8.722;2022-10-16T09:51:48;5.60;;;4.70;;
26588;SDS011;14235;48.532;8.722;2022-10-16T09:54:15;4.32;;;3.85;;
26588;SDS011;14235;48.532;8.722;2022-10-16T09:56:43;3.90;;;3.60;;
26588;SDS011;14235;48.532;8.722;2022-10-16T09:59:12;5.95;;;3.03;;
26588;SDS011;14235;48.532;8.722;2022-10-16T10:01:46;5.85;;;2.60;;
26588;SDS011;14235;48.532;8.722;2022-10-16T10:04:12;4.10;;;2.60;;
26588;SDS011;14235;48.532;8.722;2022-10-16T10:06:54;6.00;;;2.22;;
26588;SDS011;14235;48.532;8.722;2022-10-16T10:09:55;4.13;;;2.42;;
26588;SDS011;14235;48.532;8.722;2022-10-16T10:12:32;3.25;;;2.10;;
26588;SDS011;14235;48.532;8.722;2022-10-16T10:15:10;2.90;;;2.30;;
26588;SDS011;14235;48.532;8.722;2022-10-16T10:20:46;2.58;;;2.38;;
26588;SDS011;14235;48.532;8.722;2022-10-16T10:23:26;3.80;;;2.60;;
26588;SDS011;14235;48.532;8.722;2022-10-16T10:31:17;2.60;;;1.77;;
26588;SDS011;14235;48.532;8.722;2022-10-16T10:33:52;2.55;;;1.65;;
26588;SDS011;14235;48.532;8.722;2022-10-16T10:36:37;2.15;;;1.95;;
26588;SDS011;14235;48.532;8.722;2022-10-16T10:39:23;2.53;;;1.73;;
26588;SDS011;14235;48.532;8.722;2022-10-16T10:41:57;2.33;;;1.90;;
26588;SDS011;14235;48.532;8.722;2022-10-16T10:45:03;1.90;;;1.80;;
26588;SDS011;14235;48.532;8.722;2022-10-16T11:01:39;1.65;;;1.45;;
26588;SDS011;14235;48.532;8.722;2022-10-16T11:07:52;2.90;;;1.40;;
26588;SDS011;14235;48.532;8.722;2022-10-16T11:10:25;2.00;;;1.40;;
26588;SDS011;14235;48.532;8.722;2022-10-16T11:12:59;2.13;;;1.75;;
26588;SDS011;14235;48.532;8.722;2022-10-16T11:15:44;1.67;;;1.42;;
26588;SDS011;14235;48.532;8.722;2022-10-16T11:18:19;1.73;;;1.40;;
26588;SDS011;14235;48.532;8.722;2022-10-16T11:20:53;1.98;;;1.35;;
26588;SDS011;14235;48.532;8.722;2022-10-16T11:25:48;1.58;;;1.40;;
26588;SDS011;14235;48.532;8.722;2022-10-16T11:28:29;2.78;;;1.40;;
26588;SDS011;14235;48.532;8.722;2022-10-16T11:33:35;1.70;;;1.60;;
26588;SDS011;14235;48.532;8.722;2022-10-16T11:36:08;1.50;;;1.40;;
26588;SDS011;14235;48.532;8.722;2022-10-16T11:38:43;1.40;;;1.40;;
26588;SDS011;14235;48.532;8.722;2022-10-16T11:46:48;2.25;;;1.17;;
26588;SDS011;14235;48.532;8.722;2022-10-16T11:49:20;1.60;;;1.50;;
26588;SDS011;14235;48.532;8.722;2022-10-16T11:51:51;1.73;;;1.42;;
26588;SDS011;14235;48.532;8.722;2022-10-16T11:54:56;1.52;;;1.50;;
26588;SDS011;14235;48.532;8.722;2022-10-16T11:57:27;2.70;;;1.65;;
26588;SDS011;14235;48.532;8.722;2022-10-16T11:59:59;1.50;;;1.40;;
26588;SDS011;14235;48.532;8.722;2022-10-16T12:02:40;2.10;;;1.40;;
26588;SDS011;14235;48.532;8.722;2022-10-16T12:08:11;1.63;;;1.30;;
26588;SDS011;14235;48.532;8.722;2022-10-16T12:10:39;1.60;;;1.50;;
26588;SDS011;14235;48.532;8.722;2022-10-16T12:18:39;2.13;;;1.80;;
26588;SDS011;14235;48.532;8.722;2022-10-16T12:21:06;2.85;;;1.60;;
26588;SDS011;14235;48.532;8.722;2022-10-16T12:23:36;3.75;;;1.67;;
26588;SDS011;14235;48.532;8.722;2022-10-16T12:26:02;2.65;;;1.45;;
26588;SDS011;14235;48.532;8.722;2022-10-16T12:28:30;1.50;;;1.40;;
26588;SDS011;14235;48.532;8.722;2022-10-16T12:31:03;2.35;;;1.70;;
26588;SDS011;14235;48.532;8.722;2022-10-16T12:33:33;1.65;;;1.55;;
26588;SDS011;14235;48.532;8.722;2022-10-16T12:36:02;1.60;;;1.50;;
26588;SDS011;14235;48.532;8.722;2022-10-16T12:38:37;2.70;;;1.70;;
26588;SDS011;14235;48.532;8.722;2022-10-16T12:41:07;1.75;;;1.45;;
26588;SDS011;14235;48.532;8.722;2022-10-16T12:43:36;1.83;;;1.70;;
26588;SDS011;14235;48.532;8.722;2022-10-16T12:48:31;2.75;;;1.88;;
26588;SDS011;14235;48.532;8.722;2022-10-16T12:51:08;2.55;;;1.85;;
26588;SDS011;14235;48.532;8.722;2022-10-16T12:53:34;1.50;;;1.40;;
26588;SDS011;14235;48.532;8.722;2022-10-16T12:56:09;2.60;;;1.77;;
26588;SDS011;14235;48.532;8.722;2022-10-16T12:58:42;4.63;;;1.70;;
26588;SDS011;14235;48.532;8.722;2022-10-16T13:01:18;3.45;;;1.63;;
26588;SDS011;14235;48.532;8.722;2022-10-16T13:03:49;6.15;;;1.95;;
26588;SDS011;14235;48.532;8.722;2022-10-16T13:06:29;2.45;;;1.75;;
26588;SDS011;14235;48.532;8.722;2022-10-16T13:09:01;1.73;;;1.60;;
26588;SDS011;14235;48.532;8.722;2022-10-16T13:11:35;1.90;;;1.75;;
26588;SDS011;14235;48.532;8.722;2022-10-16T13:21:50;1.83;;;1.73;;
26588;SDS011;14235;48.532;8.722;2022-10-16T13:27:07;2.20;;;1.70;;
26588;SDS011;14235;48.532;8.722;2022-10-16T13:29:34;2.78;;;1.98;;
26588;SDS011;14235;48.532;8.722;2022-10-16T13:32:01;2.38;;;2.22;;
26588;SDS011;14235;48.532;8.722;2022-10-16T13:34:32;2.95;;;2.20;;
26588;SDS011;14235;48.532;8.722;2022-10-16T13:36:58;3.38;;;1.88;;
26588;SDS011;14235;48.532;8.722;2022-10-16T13:39:25;4.72;;;2.00;;
26588;SDS011;14235;48.532;8.722;2022-10-16T13:42:05;5.07;;;1.85;;
26588;SDS011;14235;48.532;8.722;2022-10-16T13:44:52;2.00;;;1.80;;
26588;SDS011;14235;48.532;8.722;2022-10-16T13:49:47;2.60;;;1.70;;
26588;SDS011;14235;48.532;8.722;2022-10-16T13:52:31;3.85;;;1.98;;
26588;SDS011;14235;48.532;8.722;2022-10-16T13:54:57;6.43;;;2.15;;
26588;SDS011;14235;48.532;8.722;2022-10-16T13:57:23;2.20;;;2.10;;
26588;SDS011;14235;48.532;8.722;2022-10-16T13:59:50;6.90;;;1.98;;
26588;SDS011;14235;48.532;8.722;2022-10-16T14:04:51;5.78;;;2.10;;
26588;SDS011;14235;48.532;8.722;2022-10-16T14:07:20;2.13;;;2.03;;
26588;SDS011;14235;48.532;8.722;2022-10-16T14:09:51;2.97;;;1.73;;
26588;SDS011;14235;48.532;8.722;2022-10-16T14:12:17;4.05;;;2.10;;
26588;SDS011;14235;48.532;8.722;2022-10-16T14:14:48;1.92;;;1.75;;
26588;SDS011;14235;48.532;8.722;2022-10-16T14:17:15;3.20;;;1.90;;
26588;SDS011;14235;48.532;8.722;2022-10-16T14:19:47;2.13;;;1.92;;
26588;SDS011;14235;48.532;8.722;2022-10-16T14:22:32;1.92;;;1.83;;
26588;SDS011;14235;48.532;8.722;2022-10-16T14:24:59;4.97;;;1.88;;
26588;SDS011;14235;48.532;8.722;2022-10-16T14:27:33;2.38;;;2.10;;
26588;SDS011;14235;48.532;8.722;2022-10-16T14:32:32;5.43;;;2.13;;
26588;SDS011;14235;48.532;8.722;2022-10-16T14:34:58;4.32;;;2.20;;
26588;SDS011;14235;48.532;8.722;2022-10-16T14:37:24;4.75;;;2.00;;
26588;SDS011;14235;48.532;8.722;2022-10-16T14:39:54;2.83;;;2.10;;
26588;SDS011;14235;48.532;8.722;2022-10-16T14:42:22;8.48;;;2.33;;
26588;SDS011;14235;48.532;8.722;2022-10-16T14:44:50;4.18;;;2.15;;
26588;SDS011;14235;48.532;8.722;2022-10-16T14:47:20;2.33;;;1.92;;
26588;SDS011;14235;48.532;8.722;2022-10-16T14:49:51;4.93;;;2.53;;
26588;SDS011;14235;48.532;8.722;2022-10-16T14:52:18;2.10;;;2.00;;
26588;SDS011;14235;48.532;8.722;2022-10-16T14:54:43;3.00;;;2.00;;
26588;SDS011;14235;48.532;8.722;2022-10-16T14:57:15;5.80;;;2.05;;
26588;SDS011;14235;48.532;8.722;2022-10-16T14:59:43;4.78;;;2.17;;
26588;SDS011;14235;48.532;8.722;2022-10-16T15:04:53;2.63;;;2.13;;
26588;SDS011;14235;48.532;8.722;2022-10-16T15:07:19;4.47;;;2.33;;
26588;SDS011;14235;48.532;8.722;2022-10-16T15:09:44;2.00;;;1.90;;
26588;SDS011;14235;48.532;8.722;2022-10-16T15:12:10;4.85;;;1.80;;
26588;SDS011;14235;48.532;8.722;2022-10-16T15:14:36;3.50;;;1.90;;
26588;SDS011;14235;48.532;8.722;2022-10-16T15:17:02;4.40;;;2.10;;
26588;SDS011;14235;48.532;8.722;2022-10-16T15:19:28;2.30;;;2.10;;
26588;SDS011;14235;48.532;8.722;2022-10-16T15:21:53;7.35;;;2.53;;
26588;SDS011;14235;48.532;8.722;2022-10-16T15:24:19;4.55;;;2.10;;
26588;SDS011;14235;48.532;8.722;2022-10-16T15:26:44;3.90;;;2.20;;
26588;SDS011;14235;48.532;8.722;2022-10-16T15:29:14;6.18;;;2.42;;
26588;SDS011;14235;48.532;8.722;2022-10-16T15:31:40;6.38;;;2.40;;
26588;SDS011;14235;48.532;8.722;2022-10-16T15:34:09;4.35;;;2.17;;
26588;SDS011;14235;48.532;8.722;2022-10-16T15:36:36;5.22;;;2.45;;
26588;SDS011;14235;48.532;8.722;2022-10-16T15:39:03;2.40;;;2.20;;
26588;SDS011;14235;48.532;8.722;2022-10-16T15:41:29;2.33;;;2.17;;
26588;SDS011;14235;48.532;8.722;2022-10-16T15:43:55;2.03;;;1.92;;
26588;SDS011;14235;48.532;8.722;2022-10-16T15:46:21;7.38;;;2.70;;
26588;SDS011;14235;48.532;8.722;2022-10-16T15:48:49;4.68;;;2.40;;
26588;SDS011;14235;48.532;8.722;2022-10-16T15:51:15;2.55;;;2.08;;
26588;SDS011;14235;48.532;8.722;2022-10-16T15:53:42;3.47;;;2.20;;
26588;SDS011;14235;48.532;8.722;2022-10-16T15:56:11;6.53;;;2.35;;
26588;SDS011;14235;48.532;8.722;2022-10-16T15:58:37;3.22;;;2.30;;
26588;SDS011;14235;48.532;8.722;2022-10-16T16:01:03;4.30;;;2.38;;
26588;SDS011;14235;48.532;8.722;2022-10-16T16:03:29;5.38;;;2.30;;
26588;SDS011;14235;48.532;8.722;2022-10-16T16:05:56;4.93;;;2.45;;
26588;SDS011;14235;48.532;8.722;2022-10-16T16:08:22;10.98;;;2.47;;
26588;SDS011;14235;48.532;8.722;2022-10-16T16:10:58;6.50;;;2.50;;
26588;SDS011;14235;48.532;8.722;2022-10-16T16:13:28;6.28;;;2.20;;
26588;SDS011;14235;48.532;8.722;2022-10-16T16:15:54;5.43;;;2.47;;
26588;SDS011;14235;48.532;8.722;2022-10-16T16:18:19;5.30;;;2.50;;
26588;SDS011;14235;48.532;8.722;2022-10-16T16:20:45;2.70;;;2.50;;
26588;SDS011;14235;48.532;8.722;2022-10-16T16:23:10;5.85;;;2.50;;
26588;SDS011;14235;48.532;8.722;2022-10-16T16:25:36;9.25;;;3.75;;
26588;SDS011;14235;48.532;8.722;2022-10-16T16:28:02;6.40;;;2.80;;
26588;SDS011;14235;48.532;8.722;2022-10-16T16:30:27;6.55;;;2.47;;
26588;SDS011;14235;48.532;8.722;2022-10-16T16:32:53;6.38;;;2.33;;
26588;SDS011;14235;48.532;8.722;2022-10-16T16:35:18;2.47;;;2.30;;
26588;SDS011;14235;48.532;8.722;2022-10-16T16:37:44;2.95;;;2.40;;
26588;SDS011;14235;48.532;8.722;2022-10-16T16:40:11;3.08;;;2.40;;
26588;SDS011;14235;48.532;8.722;2022-10-16T16:42:37;10.18;;;2.60;;
26588;SDS011;14235;48.532;8.722;2022-10-16T16:45:02;2.75;;;2.35;;
26588;SDS011;14235;48.532;8.722;2022-10-16T16:47:28;3.72;;;2.95;;
26588;SDS011;14235;48.532;8.722;2022-10-16T16:49:54;5.45;;;2.80;;